sensor_id;sensor_type;location;lat;lon;timestamp;temperature;humidity
22813;DHT22;11573;51.334;3.244;2022-07-12T00:02:08;16.20;99.90
22813;DHT22;11573;51.334;3.244;2022-07-12T00:04:35;16.20;99.90
22813;DHT22;11573;51.334;3.244;2022-07-12T00:07:03;16.10;99.90
22813;DHT22;11573;51.334;3.244;2022-07-12T00:09:30;16.10;99.90
22813;DHT22;11573;51.334;3.244;2022-07-12T00:11:57;16.00;99.90
22813;DHT22;11573;51.334;3.244;2022-07-12T00:14:25;16.00;99.90
22813;DHT22;11573;51.334;3.244;2022-07-12T00:16:52;16.00;99.90
22813;DHT22;11573;51.334;3.244;2022-07-12T00:19:20;16.00;99.90
22813;DHT22;11573;51.334;3.244;2022-07-12T00:21:47;16.00;99.90
22813;DHT22;11573;51.334;3.244;2022-07-12T00:24:14;16.10;99.90
22813;DHT22;11573;51.334;3.244;2022-07-12T00:26:41;16.10;99.90
22813;DHT22;11573;51.334;3.244;2022-07-12T00:29:08;16.10;99.90
22813;DHT22;11573;51.334;3.244;2022-07-12T00:31:36;16.10;99.90
22813;DHT22;11573;51.334;3.244;2022-07-12T00:34:03;16.10;99.90
22813;DHT22;11573;51.334;3.244;2022-07-12T00:36:30;16.00;99.90
22813;DHT22;11573;51.334;3.244;2022-07-12T00:38:57;16.10;99.90
22813;DHT22;11573;51.334;3.244;2022-07-12T00:41:25;16.10;99.90
22813;DHT22;11573;51.334;3.244;2022-07-12T00:43:52;16.10;99.90
22813;DHT22;11573;51.334;3.244;2022-07-12T00:46:22;16.10;99.90
22813;DHT22;11573;51.334;3.244;2022-07-12T00:48:51;16.10;99.90
22813;DHT22;11573;51.334;3.244;2022-07-12T00:51:19;16.10;99.90
22813;DHT22;11573;51.334;3.244;2022-07-12T00:53:46;16.00;99.90
22813;DHT22;11573;51.334;3.244;2022-07-12T00:56:13;16.00;99.90
22813;DHT22;11573;51.334;3.244;2022-07-12T00:58:43;16.00;99.90
22813;DHT22;11573;51.334;3.244;2022-07-12T01:01:11;16.00;99.90
22813;DHT22;11573;51.334;3.244;2022-07-12T01:03:38;15.90;99.90
22813;DHT22;11573;51.334;3.244;2022-07-12T01:06:07;15.80;99.90
22813;DHT22;11573;51.334;3.244;2022-07-12T01:08:35;15.80;99.90
22813;DHT22;11573;51.334;3.244;2022-07-12T01:11:03;15.80;99.90
22813;DHT22;11573;51.334;3.244;2022-07-12T01:13:30;15.80;99.90
22813;DHT22;11573;51.334;3.244;2022-07-12T01:15:57;15.70;99.90
22813;DHT22;11573;51.334;3.244;2022-07-12T01:18:26;15.70;99.90
22813;DHT22;11573;51.334;3.244;2022-07-12T01:20:54;15.70;99.90
22813;DHT22;11573;51.334;3.244;2022-07-12T01:23:25;15.60;99.90
22813;DHT22;11573;51.334;3.244;2022-07-12T01:25:52;15.70;99.90
22813;DHT22;11573;51.334;3.244;2022-07-12T01:28:25;15.70;99.90
22813;DHT22;11573;51.334;3.244;2022-07-12T01:30:52;15.70;99.90
22813;DHT22;11573;51.334;3.244;2022-07-12T01:33:20;15.70;99.90
22813;DHT22;11573;51.334;3.244;2022-07-12T01:35:47;15.70;99.90
22813;DHT22;11573;51.334;3.244;2022-07-12T01:38:16;15.60;99.90
22813;DHT22;11573;51.334;3.244;2022-07-12T01:40:43;15.60;99.90
22813;DHT22;11573;51.334;3.244;2022-07-12T01:43:11;15.60;99.90
22813;DHT22;11573;51.334;3.244;2022-07-12T01:45:38;15.60;99.90
22813;DHT22;11573;51.334;3.244;2022-07-12T01:48:05;15.60;99.90
22813;DHT22;11573;51.334;3.244;2022-07-12T01:50:33;15.60;99.90
22813;DHT22;11573;51.334;3.244;2022-07-12T01:53:01;15.50;99.90
22813;DHT22;11573;51.334;3.244;2022-07-12T01:55:32;15.50;99.90
22813;DHT22;11573;51.334;3.244;2022-07-12T01:57:59;15.50;99.90
22813;DHT22;11573;51.334;3.244;2022-07-12T02:00:27;15.50;99.90
22813;DHT22;11573;51.334;3.244;2022-07-12T02:02:54;15.50;99.90
22813;DHT22;11573;51.334;3.244;2022-07-12T02:05:22;15.50;99.90
22813;DHT22;11573;51.334;3.244;2022-07-12T02:07:51;15.50;99.90
22813;DHT22;11573;51.334;3.244;2022-07-12T02:10:18;15.40;99.90
22813;DHT22;11573;51.334;3.244;2022-07-12T02:12:45;15.40;99.90
22813;DHT22;11573;51.334;3.244;2022-07-12T02:15:13;15.40;99.90
22813;DHT22;11573;51.334;3.244;2022-07-12T02:17:40;15.40;99.90
22813;DHT22;11573;51.334;3.244;2022-07-12T02:20:09;15.40;99.90
22813;DHT22;11573;51.334;3.244;2022-07-12T02:22:38;15.40;99.90
22813;DHT22;11573;51.334;3.244;2022-07-12T02:25:05;15.40;99.90
22813;DHT22;11573;51.334;3.244;2022-07-12T02:27:32;15.30;99.90
22813;DHT22;11573;51.334;3.244;2022-07-12T02:29:59;15.40;99.90
22813;DHT22;11573;51.334;3.244;2022-07-12T02:32:27;15.30;99.90
22813;DHT22;11573;51.334;3.244;2022-07-12T02:34:55;15.30;99.90
22813;DHT22;11573;51.334;3.244;2022-07-12T02:37:22;15.40;99.90
22813;DHT22;11573;51.334;3.244;2022-07-12T02:39:49;15.30;99.90
22813;DHT22;11573;51.334;3.244;2022-07-12T02:42:16;15.30;99.90
22813;DHT22;11573;51.334;3.244;2022-07-12T02:44:44;15.30;99.90
22813;DHT22;11573;51.334;3.244;2022-07-12T02:47:11;15.30;99.90
22813;DHT22;11573;51.334;3.244;2022-07-12T02:49:39;15.40;99.90
22813;DHT22;11573;51.334;3.244;2022-07-12T02:52:06;15.30;99.90
22813;DHT22;11573;51.334;3.244;2022-07-12T02:54:36;15.40;99.90
22813;DHT22;11573;51.334;3.244;2022-07-12T02:57:03;15.30;99.90
22813;DHT22;11573;51.334;3.244;2022-07-12T02:59:31;15.30;99.90
22813;DHT22;11573;51.334;3.244;2022-07-12T03:02:00;15.20;99.90
22813;DHT22;11573;51.334;3.244;2022-07-12T03:04:28;15.10;99.90
22813;DHT22;11573;51.334;3.244;2022-07-12T03:06:55;15.10;99.90
22813;DHT22;11573;51.334;3.244;2022-07-12T03:09:22;15.10;99.90
22813;DHT22;11573;51.334;3.244;2022-07-12T03:11:49;15.00;99.90
22813;DHT22;11573;51.334;3.244;2022-07-12T03:14:16;15.00;99.90
22813;DHT22;11573;51.334;3.244;2022-07-12T03:16:43;14.90;99.90
22813;DHT22;11573;51.334;3.244;2022-07-12T03:19:10;14.90;99.90
22813;DHT22;11573;51.334;3.244;2022-07-12T03:21:37;14.90;99.90
22813;DHT22;11573;51.334;3.244;2022-07-12T03:24:05;14.80;99.90
22813;DHT22;11573;51.334;3.244;2022-07-12T03:26:32;14.80;99.90
22813;DHT22;11573;51.334;3.244;2022-07-12T03:29:00;14.80;99.90
22813;DHT22;11573;51.334;3.244;2022-07-12T03:31:27;14.80;99.90
22813;DHT22;11573;51.334;3.244;2022-07-12T03:33:55;14.80;99.90
22813;DHT22;11573;51.334;3.244;2022-07-12T03:36:22;14.80;99.90
22813;DHT22;11573;51.334;3.244;2022-07-12T03:38:49;14.80;99.90
22813;DHT22;11573;51.334;3.244;2022-07-12T03:41:16;14.80;99.90
22813;DHT22;11573;51.334;3.244;2022-07-12T03:43:43;14.90;99.90
22813;DHT22;11573;51.334;3.244;2022-07-12T03:46:10;14.90;99.90
22813;DHT22;11573;51.334;3.244;2022-07-12T03:48:38;14.90;99.90
22813;DHT22;11573;51.334;3.244;2022-07-12T03:51:05;14.90;99.90
22813;DHT22;11573;51.334;3.244;2022-07-12T03:53:32;14.90;99.90
22813;DHT22;11573;51.334;3.244;2022-07-12T03:55:59;15.00;99.90
22813;DHT22;11573;51.334;3.244;2022-07-12T03:58:26;15.00;99.90
22813;DHT22;11573;51.334;3.244;2022-07-12T04:00:53;15.00;99.90
22813;DHT22;11573;51.334;3.244;2022-07-12T04:03:21;15.10;99.90
22813;DHT22;11573;51.334;3.244;2022-07-12T04:05:48;15.20;99.90
22813;DHT22;11573;51.334;3.244;2022-07-12T04:08:15;15.30;99.90
22813;DHT22;11573;51.334;3.244;2022-07-12T04:10:43;15.30;99.90
22813;DHT22;11573;51.334;3.244;2022-07-12T04:13:10;15.40;99.90
22813;DHT22;11573;51.334;3.244;2022-07-12T04:15:37;15.50;99.90
22813;DHT22;11573;51.334;3.244;2022-07-12T04:18:04;15.60;99.90
22813;DHT22;11573;51.334;3.244;2022-07-12T04:20:32;15.60;99.90
22813;DHT22;11573;51.334;3.244;2022-07-12T04:22:59;15.70;99.90
22813;DHT22;11573;51.334;3.244;2022-07-12T04:25:26;15.80;99.90
22813;DHT22;11573;51.334;3.244;2022-07-12T04:27:53;16.00;99.90
22813;DHT22;11573;51.334;3.244;2022-07-12T04:30:22;16.10;99.90
22813;DHT22;11573;51.334;3.244;2022-07-12T04:32:49;16.20;99.90
22813;DHT22;11573;51.334;3.244;2022-07-12T04:35:17;16.40;99.90
22813;DHT22;11573;51.334;3.244;2022-07-12T04:37:44;16.50;99.90
22813;DHT22;11573;51.334;3.244;2022-07-12T04:40:12;16.50;99.90
22813;DHT22;11573;51.334;3.244;2022-07-12T04:42:39;16.60;99.90
22813;DHT22;11573;51.334;3.244;2022-07-12T04:45:06;16.70;99.90
22813;DHT22;11573;51.334;3.244;2022-07-12T04:47:37;16.70;99.90
22813;DHT22;11573;51.334;3.244;2022-07-12T04:50:08;16.80;99.90
22813;DHT22;11573;51.334;3.244;2022-07-12T04:52:36;16.80;99.90
22813;DHT22;11573;51.334;3.244;2022-07-12T04:55:04;16.80;99.90
22813;DHT22;11573;51.334;3.244;2022-07-12T04:57:32;16.90;99.90
22813;DHT22;11573;51.334;3.244;2022-07-12T05:00:00;17.00;99.90
22813;DHT22;11573;51.334;3.244;2022-07-12T05:02:27;17.20;99.90
22813;DHT22;11573;51.334;3.244;2022-07-12T05:04:54;17.40;99.90
22813;DHT22;11573;51.334;3.244;2022-07-12T05:07:21;17.50;99.90
22813;DHT22;11573;51.334;3.244;2022-07-12T05:09:48;17.70;99.90
22813;DHT22;11573;51.334;3.244;2022-07-12T05:12:15;17.80;99.90
22813;DHT22;11573;51.334;3.244;2022-07-12T05:14:42;18.00;99.90
22813;DHT22;11573;51.334;3.244;2022-07-12T05:17:10;18.00;99.90
22813;DHT22;11573;51.334;3.244;2022-07-12T05:19:38;18.40;99.90
22813;DHT22;11573;51.334;3.244;2022-07-12T05:22:05;19.10;99.90
22813;DHT22;11573;51.334;3.244;2022-07-12T05:24:32;19.80;99.90
22813;DHT22;11573;51.334;3.244;2022-07-12T05:27:00;21.00;99.90
22813;DHT22;11573;51.334;3.244;2022-07-12T05:29:27;22.20;99.90
22813;DHT22;11573;51.334;3.244;2022-07-12T05:31:56;23.30;99.90
22813;DHT22;11573;51.334;3.244;2022-07-12T05:34:23;24.20;99.90
22813;DHT22;11573;51.334;3.244;2022-07-12T05:36:50;24.40;99.90
22813;DHT22;11573;51.334;3.244;2022-07-12T05:39:18;24.90;99.90
22813;DHT22;11573;51.334;3.244;2022-07-12T05:41:45;25.30;99.90
22813;DHT22;11573;51.334;3.244;2022-07-12T05:44:13;25.60;99.90
22813;DHT22;11573;51.334;3.244;2022-07-12T05:46:42;25.80;99.90
22813;DHT22;11573;51.334;3.244;2022-07-12T05:49:10;25.80;99.90
22813;DHT22;11573;51.334;3.244;2022-07-12T05:51:37;26.20;99.90
22813;DHT22;11573;51.334;3.244;2022-07-12T05:54:23;26.00;99.90
22813;DHT22;11573;51.334;3.244;2022-07-12T05:56:50;25.80;99.90
22813;DHT22;11573;51.334;3.244;2022-07-12T05:59:18;25.90;99.90
22813;DHT22;11573;51.334;3.244;2022-07-12T06:01:45;26.20;99.90
22813;DHT22;11573;51.334;3.244;2022-07-12T06:04:12;26.20;99.90
22813;DHT22;11573;51.334;3.244;2022-07-12T06:06:39;25.40;99.90
22813;DHT22;11573;51.334;3.244;2022-07-12T06:09:07;24.90;99.90
22813;DHT22;11573;51.334;3.244;2022-07-12T06:11:34;24.40;99.90
22813;DHT22;11573;51.334;3.244;2022-07-12T06:14:01;24.00;99.90
22813;DHT22;11573;51.334;3.244;2022-07-12T06:16:28;23.20;99.90
22813;DHT22;11573;51.334;3.244;2022-07-12T06:18:55;22.70;99.90
22813;DHT22;11573;51.334;3.244;2022-07-12T06:21:22;22.30;99.90
22813;DHT22;11573;51.334;3.244;2022-07-12T06:23:49;22.20;99.90
22813;DHT22;11573;51.334;3.244;2022-07-12T06:26:17;22.30;99.90
22813;DHT22;11573;51.334;3.244;2022-07-12T06:28:44;22.20;99.90
22813;DHT22;11573;51.334;3.244;2022-07-12T06:31:11;22.20;99.90
22813;DHT22;11573;51.334;3.244;2022-07-12T06:33:38;22.20;99.90
22813;DHT22;11573;51.334;3.244;2022-07-12T06:36:05;22.20;99.90
22813;DHT22;11573;51.334;3.244;2022-07-12T06:38:32;22.20;99.90
22813;DHT22;11573;51.334;3.244;2022-07-12T06:41:08;22.20;99.90
22813;DHT22;11573;51.334;3.244;2022-07-12T06:43:35;22.40;99.90
22813;DHT22;11573;51.334;3.244;2022-07-12T06:46:03;22.50;99.90
22813;DHT22;11573;51.334;3.244;2022-07-12T06:48:30;22.50;99.90
22813;DHT22;11573;51.334;3.244;2022-07-12T06:50:57;22.60;99.90
22813;DHT22;11573;51.334;3.244;2022-07-12T06:53:24;22.70;99.90
22813;DHT22;11573;51.334;3.244;2022-07-12T06:55:51;22.70;99.90
22813;DHT22;11573;51.334;3.244;2022-07-12T06:58:19;22.90;99.90
22813;DHT22;11573;51.334;3.244;2022-07-12T07:00:46;23.00;99.90
22813;DHT22;11573;51.334;3.244;2022-07-12T07:03:13;23.00;99.90
22813;DHT22;11573;51.334;3.244;2022-07-12T07:05:40;23.00;99.90
22813;DHT22;11573;51.334;3.244;2022-07-12T07:08:07;22.80;99.90
22813;DHT22;11573;51.334;3.244;2022-07-12T07:10:36;22.90;99.90
22813;DHT22;11573;51.334;3.244;2022-07-12T07:13:03;23.00;99.90
22813;DHT22;11573;51.334;3.244;2022-07-12T07:15:31;23.10;99.90
22813;DHT22;11573;51.334;3.244;2022-07-12T07:17:58;23.40;99.90
22813;DHT22;11573;51.334;3.244;2022-07-12T07:20:25;23.60;99.90
22813;DHT22;11573;51.334;3.244;2022-07-12T07:22:52;23.50;99.90
22813;DHT22;11573;51.334;3.244;2022-07-12T07:25:20;23.50;99.90
22813;DHT22;11573;51.334;3.244;2022-07-12T07:27:47;23.30;99.90
22813;DHT22;11573;51.334;3.244;2022-07-12T07:30:14;23.30;99.90
22813;DHT22;11573;51.334;3.244;2022-07-12T07:33:00;23.50;99.90
22813;DHT22;11573;51.334;3.244;2022-07-12T07:35:28;23.80;99.90
22813;DHT22;11573;51.334;3.244;2022-07-12T07:37:55;24.20;99.90
22813;DHT22;11573;51.334;3.244;2022-07-12T07:40:22;24.50;99.90
22813;DHT22;11573;51.334;3.244;2022-07-12T07:42:49;24.60;99.90
22813;DHT22;11573;51.334;3.244;2022-07-12T07:45:17;24.50;99.90
22813;DHT22;11573;51.334;3.244;2022-07-12T07:47:49;24.20;99.90
22813;DHT22;11573;51.334;3.244;2022-07-12T07:50:37;24.20;99.90
22813;DHT22;11573;51.334;3.244;2022-07-12T07:53:05;24.30;99.90
22813;DHT22;11573;51.334;3.244;2022-07-12T07:55:32;24.30;99.90
22813;DHT22;11573;51.334;3.244;2022-07-12T07:57:59;24.40;99.90
22813;DHT22;11573;51.334;3.244;2022-07-12T08:00:28;24.40;99.90
22813;DHT22;11573;51.334;3.244;2022-07-12T08:02:55;24.50;99.90
22813;DHT22;11573;51.334;3.244;2022-07-12T08:05:23;24.60;99.90
22813;DHT22;11573;51.334;3.244;2022-07-12T08:07:55;24.50;99.90
22813;DHT22;11573;51.334;3.244;2022-07-12T08:10:23;24.60;99.90
22813;DHT22;11573;51.334;3.244;2022-07-12T08:12:51;24.80;99.90
22813;DHT22;11573;51.334;3.244;2022-07-12T08:15:18;24.90;99.90
22813;DHT22;11573;51.334;3.244;2022-07-12T08:17:45;25.30;99.90
22813;DHT22;11573;51.334;3.244;2022-07-12T08:20:20;25.50;99.90
22813;DHT22;11573;51.334;3.244;2022-07-12T08:23:09;25.40;99.90
22813;DHT22;11573;51.334;3.244;2022-07-12T08:25:36;25.40;99.90
22813;DHT22;11573;51.334;3.244;2022-07-12T08:28:03;25.30;99.90
22813;DHT22;11573;51.334;3.244;2022-07-12T08:30:31;25.50;99.90
22813;DHT22;11573;51.334;3.244;2022-07-12T08:32:58;25.50;99.90
22813;DHT22;11573;51.334;3.244;2022-07-12T08:35:25;25.60;99.90
22813;DHT22;11573;51.334;3.244;2022-07-12T08:37:52;25.80;99.90
22813;DHT22;11573;51.334;3.244;2022-07-12T08:40:21;25.90;99.90
22813;DHT22;11573;51.334;3.244;2022-07-12T08:42:48;26.10;99.90
22813;DHT22;11573;51.334;3.244;2022-07-12T08:45:16;26.10;99.90
22813;DHT22;11573;51.334;3.244;2022-07-12T08:47:43;26.10;99.90
22813;DHT22;11573;51.334;3.244;2022-07-12T08:50:11;26.10;99.90
22813;DHT22;11573;51.334;3.244;2022-07-12T08:52:41;26.30;99.90
22813;DHT22;11573;51.334;3.244;2022-07-12T08:55:22;26.30;99.90
22813;DHT22;11573;51.334;3.244;2022-07-12T08:57:52;26.40;99.90
22813;DHT22;11573;51.334;3.244;2022-07-12T09:00:21;26.70;99.90
22813;DHT22;11573;51.334;3.244;2022-07-12T09:05:28;27.10;99.90
22813;DHT22;11573;51.334;3.244;2022-07-12T09:08:05;27.10;99.90
22813;DHT22;11573;51.334;3.244;2022-07-12T09:10:34;27.30;99.90
22813;DHT22;11573;51.334;3.244;2022-07-12T09:13:01;27.20;99.90
22813;DHT22;11573;51.334;3.244;2022-07-12T09:15:28;27.20;99.90
22813;DHT22;11573;51.334;3.244;2022-07-12T09:18:05;27.30;99.90
22813;DHT22;11573;51.334;3.244;2022-07-12T09:20:41;27.10;99.90
22813;DHT22;11573;51.334;3.244;2022-07-12T09:23:10;27.10;99.90
22813;DHT22;11573;51.334;3.244;2022-07-12T09:25:38;27.40;99.90
22813;DHT22;11573;51.334;3.244;2022-07-12T09:28:07;27.80;99.90
22813;DHT22;11573;51.334;3.244;2022-07-12T09:30:36;27.90;99.90
22813;DHT22;11573;51.334;3.244;2022-07-12T09:33:07;27.70;99.90
22813;DHT22;11573;51.334;3.244;2022-07-12T09:38:49;27.00;99.90
22813;DHT22;11573;51.334;3.244;2022-07-12T09:41:18;26.90;99.90
22813;DHT22;11573;51.334;3.244;2022-07-12T09:43:47;27.10;99.90
22813;DHT22;11573;51.334;3.244;2022-07-12T09:46:15;27.70;99.90
22813;DHT22;11573;51.334;3.244;2022-07-12T09:48:44;28.20;99.90
22813;DHT22;11573;51.334;3.244;2022-07-12T09:51:17;28.40;99.90
22813;DHT22;11573;51.334;3.244;2022-07-12T09:53:46;28.50;99.90
22813;DHT22;11573;51.334;3.244;2022-07-12T09:56:16;28.20;99.90
22813;DHT22;11573;51.334;3.244;2022-07-12T09:58:55;28.30;99.90
22813;DHT22;11573;51.334;3.244;2022-07-12T10:01:24;28.20;99.90
22813;DHT22;11573;51.334;3.244;2022-07-12T10:03:52;28.20;99.90
22813;DHT22;11573;51.334;3.244;2022-07-12T10:06:25;28.50;99.90
22813;DHT22;11573;51.334;3.244;2022-07-12T10:08:58;28.80;99.90
22813;DHT22;11573;51.334;3.244;2022-07-12T10:11:26;29.00;99.90
22813;DHT22;11573;51.334;3.244;2022-07-12T10:14:14;29.20;99.90
22813;DHT22;11573;51.334;3.244;2022-07-12T10:16:42;29.00;99.90
22813;DHT22;11573;51.334;3.244;2022-07-12T10:19:27;29.10;99.90
22813;DHT22;11573;51.334;3.244;2022-07-12T10:21:56;29.20;99.90
22813;DHT22;11573;51.334;3.244;2022-07-12T10:29:50;29.90;99.90
22813;DHT22;11573;51.334;3.244;2022-07-12T10:32:23;29.90;99.90
22813;DHT22;11573;51.334;3.244;2022-07-12T10:34:58;30.20;99.90
22813;DHT22;11573;51.334;3.244;2022-07-12T10:37:28;29.70;99.90
22813;DHT22;11573;51.334;3.244;2022-07-12T10:40:20;28.90;99.90
22813;DHT22;11573;51.334;3.244;2022-07-12T10:45:45;28.50;99.90
22813;DHT22;11573;51.334;3.244;2022-07-12T10:53:35;29.10;99.90
22813;DHT22;11573;51.334;3.244;2022-07-12T10:58:54;28.90;99.90
22813;DHT22;11573;51.334;3.244;2022-07-12T11:01:24;28.70;99.90
22813;DHT22;11573;51.334;3.244;2022-07-12T11:04:06;28.70;99.90
22813;DHT22;11573;51.334;3.244;2022-07-12T11:06:36;28.50;99.90
22813;DHT22;11573;51.334;3.244;2022-07-12T11:09:06;28.30;99.90
22813;DHT22;11573;51.334;3.244;2022-07-12T11:11:43;28.30;99.90
22813;DHT22;11573;51.334;3.244;2022-07-12T11:14:13;28.30;99.90
22813;DHT22;11573;51.334;3.244;2022-07-12T11:16:48;28.20;99.90
22813;DHT22;11573;51.334;3.244;2022-07-12T11:19:15;28.50;99.90
22813;DHT22;11573;51.334;3.244;2022-07-12T11:21:46;28.30;99.90
22813;DHT22;11573;51.334;3.244;2022-07-12T11:24:24;28.30;99.90
22813;DHT22;11573;51.334;3.244;2022-07-12T11:26:51;28.40;99.90
22813;DHT22;11573;51.334;3.244;2022-07-12T11:29:22;28.50;99.90
22813;DHT22;11573;51.334;3.244;2022-07-12T11:31:49;28.30;99.90
22813;DHT22;11573;51.334;3.244;2022-07-12T11:34:26;28.30;99.90
22813;DHT22;11573;51.334;3.244;2022-07-12T11:36:55;28.40;99.90
22813;DHT22;11573;51.334;3.244;2022-07-12T11:42:02;28.30;99.90
22813;DHT22;11573;51.334;3.244;2022-07-12T11:44:52;28.20;99.90
22813;DHT22;11573;51.334;3.244;2022-07-12T11:47:22;28.70;99.90
22813;DHT22;11573;51.334;3.244;2022-07-12T11:49:52;29.20;99.90
22813;DHT22;11573;51.334;3.244;2022-07-12T11:52:21;29.50;99.90
22813;DHT22;11573;51.334;3.244;2022-07-12T11:54:50;29.80;99.90
22813;DHT22;11573;51.334;3.244;2022-07-12T11:57:22;30.10;99.90
22813;DHT22;11573;51.334;3.244;2022-07-12T11:59:52;30.10;99.90
22813;DHT22;11573;51.334;3.244;2022-07-12T12:02:20;29.60;99.90
22813;DHT22;11573;51.334;3.244;2022-07-12T12:04:50;28.90;99.90
22813;DHT22;11573;51.334;3.244;2022-07-12T12:07:19;28.90;99.90
22813;DHT22;11573;51.334;3.244;2022-07-12T12:10:13;29.00;99.90
22813;DHT22;11573;51.334;3.244;2022-07-12T12:15:17;29.70;99.90
22813;DHT22;11573;51.334;3.244;2022-07-12T12:20:26;28.90;99.90
22813;DHT22;11573;51.334;3.244;2022-07-12T12:22:53;28.30;99.90
22813;DHT22;11573;51.334;3.244;2022-07-12T12:25:22;28.30;99.90
22813;DHT22;11573;51.334;3.244;2022-07-12T12:28:03;28.20;99.90
22813;DHT22;11573;51.334;3.244;2022-07-12T12:30:54;28.30;99.90
22813;DHT22;11573;51.334;3.244;2022-07-12T12:33:36;28.00;99.90
22813;DHT22;11573;51.334;3.244;2022-07-12T12:36:24;28.00;99.90
22813;DHT22;11573;51.334;3.244;2022-07-12T12:41:25;28.30;99.90
22813;DHT22;11573;51.334;3.244;2022-07-12T12:44:12;28.20;99.90
22813;DHT22;11573;51.334;3.244;2022-07-12T12:46:58;28.10;99.90
22813;DHT22;11573;51.334;3.244;2022-07-12T12:49:50;27.90;99.90
22813;DHT22;11573;51.334;3.244;2022-07-12T12:52:28;27.90;99.90
22813;DHT22;11573;51.334;3.244;2022-07-12T12:54:57;28.30;99.90
22813;DHT22;11573;51.334;3.244;2022-07-12T12:57:24;28.30;99.90
22813;DHT22;11573;51.334;3.244;2022-07-12T12:59:53;28.30;99.90
22813;DHT22;11573;51.334;3.244;2022-07-12T13:02:21;28.50;99.90
22813;DHT22;11573;51.334;3.244;2022-07-12T13:04:51;28.60;99.90
22813;DHT22;11573;51.334;3.244;2022-07-12T13:07:18;28.40;99.90
22813;DHT22;11573;51.334;3.244;2022-07-12T13:09:46;28.40;99.90
22813;DHT22;11573;51.334;3.244;2022-07-12T13:12:13;28.40;99.90
22813;DHT22;11573;51.334;3.244;2022-07-12T13:14:40;28.40;99.90
22813;DHT22;11573;51.334;3.244;2022-07-12T13:17:08;28.20;99.90
22813;DHT22;11573;51.334;3.244;2022-07-12T13:19:35;28.00;99.90
22813;DHT22;11573;51.334;3.244;2022-07-12T13:22:04;27.80;99.90
22813;DHT22;11573;51.334;3.244;2022-07-12T13:24:32;27.80;99.90
22813;DHT22;11573;51.334;3.244;2022-07-12T13:27:00;27.90;99.90
22813;DHT22;11573;51.334;3.244;2022-07-12T13:29:27;28.00;99.90
22813;DHT22;11573;51.334;3.244;2022-07-12T13:31:54;27.70;99.90
22813;DHT22;11573;51.334;3.244;2022-07-12T13:34:23;27.60;99.90
22813;DHT22;11573;51.334;3.244;2022-07-12T13:36:51;27.60;99.90
22813;DHT22;11573;51.334;3.244;2022-07-12T13:39:18;27.50;99.90
22813;DHT22;11573;51.334;3.244;2022-07-12T13:42:04;27.60;99.90
22813;DHT22;11573;51.334;3.244;2022-07-12T13:44:31;27.80;99.90
22813;DHT22;11573;51.334;3.244;2022-07-12T13:46:58;27.80;99.90
22813;DHT22;11573;51.334;3.244;2022-07-12T13:49:25;27.80;99.90
22813;DHT22;11573;51.334;3.244;2022-07-12T13:51:52;28.00;99.90
22813;DHT22;11573;51.334;3.244;2022-07-12T13:54:19;28.10;99.90
22813;DHT22;11573;51.334;3.244;2022-07-12T13:56:48;28.30;99.90
22813;DHT22;11573;51.334;3.244;2022-07-12T13:59:15;28.00;99.90
22813;DHT22;11573;51.334;3.244;2022-07-12T14:01:42;28.10;99.90
22813;DHT22;11573;51.334;3.244;2022-07-12T14:04:10;28.10;99.90
22813;DHT22;11573;51.334;3.244;2022-07-12T14:06:37;28.00;99.90
22813;DHT22;11573;51.334;3.244;2022-07-12T14:09:05;28.10;99.90
22813;DHT22;11573;51.334;3.244;2022-07-12T14:11:33;27.90;99.90
22813;DHT22;11573;51.334;3.244;2022-07-12T14:14:01;28.10;99.90
22813;DHT22;11573;51.334;3.244;2022-07-12T14:16:28;28.40;99.90
22813;DHT22;11573;51.334;3.244;2022-07-12T14:18:55;28.50;99.90
22813;DHT22;11573;51.334;3.244;2022-07-12T14:21:22;28.50;99.90
22813;DHT22;11573;51.334;3.244;2022-07-12T14:23:49;28.70;99.90
22813;DHT22;11573;51.334;3.244;2022-07-12T14:26:17;28.80;99.90
22813;DHT22;11573;51.334;3.244;2022-07-12T14:28:44;29.10;99.90
22813;DHT22;11573;51.334;3.244;2022-07-12T14:31:11;28.90;99.90
22813;DHT22;11573;51.334;3.244;2022-07-12T14:33:38;28.30;99.90
22813;DHT22;11573;51.334;3.244;2022-07-12T14:36:06;28.20;99.90
22813;DHT22;11573;51.334;3.244;2022-07-12T14:38:33;28.10;99.90
22813;DHT22;11573;51.334;3.244;2022-07-12T14:41:00;28.00;99.90
22813;DHT22;11573;51.334;3.244;2022-07-12T14:43:27;28.20;99.90
22813;DHT22;11573;51.334;3.244;2022-07-12T14:45:55;28.50;99.90
22813;DHT22;11573;51.334;3.244;2022-07-12T14:48:22;28.40;99.90
22813;DHT22;11573;51.334;3.244;2022-07-12T14:50:50;28.10;99.90
22813;DHT22;11573;51.334;3.244;2022-07-12T14:53:19;28.30;99.90
22813;DHT22;11573;51.334;3.244;2022-07-12T14:55:47;28.50;99.90
22813;DHT22;11573;51.334;3.244;2022-07-12T14:58:14;28.40;99.90
22813;DHT22;11573;51.334;3.244;2022-07-12T15:00:41;28.20;99.90
22813;DHT22;11573;51.334;3.244;2022-07-12T15:03:09;27.80;99.90
22813;DHT22;11573;51.334;3.244;2022-07-12T15:05:37;27.70;99.90
22813;DHT22;11573;51.334;3.244;2022-07-12T15:08:04;27.60;99.90
22813;DHT22;11573;51.334;3.244;2022-07-12T15:10:31;27.40;99.90
22813;DHT22;11573;51.334;3.244;2022-07-12T15:12:59;26.90;99.90
22813;DHT22;11573;51.334;3.244;2022-07-12T15:15:26;26.80;99.90
22813;DHT22;11573;51.334;3.244;2022-07-12T15:17:53;26.70;99.90
22813;DHT22;11573;51.334;3.244;2022-07-12T15:20:21;26.60;99.90
22813;DHT22;11573;51.334;3.244;2022-07-12T15:22:48;26.80;99.90
22813;DHT22;11573;51.334;3.244;2022-07-12T15:25:17;26.70;99.90
22813;DHT22;11573;51.334;3.244;2022-07-12T15:27:44;26.80;99.90
22813;DHT22;11573;51.334;3.244;2022-07-12T15:30:12;26.60;99.90
22813;DHT22;11573;51.334;3.244;2022-07-12T15:32:39;26.70;99.90
22813;DHT22;11573;51.334;3.244;2022-07-12T15:35:06;26.80;99.90
22813;DHT22;11573;51.334;3.244;2022-07-12T15:37:34;26.80;99.90
22813;DHT22;11573;51.334;3.244;2022-07-12T15:40:01;26.80;99.90
22813;DHT22;11573;51.334;3.244;2022-07-12T15:42:29;26.90;99.90
22813;DHT22;11573;51.334;3.244;2022-07-12T15:44:58;26.80;99.90
22813;DHT22;11573;51.334;3.244;2022-07-12T15:47:25;26.80;99.90
22813;DHT22;11573;51.334;3.244;2022-07-12T15:49:52;26.90;99.90
22813;DHT22;11573;51.334;3.244;2022-07-12T15:52:19;26.80;99.90
22813;DHT22;11573;51.334;3.244;2022-07-12T15:55:05;26.70;99.90
22813;DHT22;11573;51.334;3.244;2022-07-12T15:57:37;26.40;99.90
22813;DHT22;11573;51.334;3.244;2022-07-12T16:00:06;26.30;99.90
22813;DHT22;11573;51.334;3.244;2022-07-12T16:02:34;26.00;99.90
22813;DHT22;11573;51.334;3.244;2022-07-12T16:05:03;26.10;99.90
22813;DHT22;11573;51.334;3.244;2022-07-12T16:07:30;26.10;99.90
22813;DHT22;11573;51.334;3.244;2022-07-12T16:09:57;26.10;99.90
22813;DHT22;11573;51.334;3.244;2022-07-12T16:12:24;25.90;99.90
22813;DHT22;11573;51.334;3.244;2022-07-12T16:14:51;25.90;99.90